createdAt,value
2023-04-17T00:00:34.769Z,81.09
2023-04-17T00:03:18.867Z,80.98
2023-04-17T00:05:46.658Z,80.99
2023-04-17T00:08:13.900Z,81.38
2023-04-17T00:10:41.311Z,81.33
2023-04-17T00:13:08.564Z,81.98
2023-04-17T00:15:35.958Z,81.51
2023-04-17T00:18:04.363Z,81.68
2023-04-17T00:20:31.731Z,82.33
2023-04-17T00:22:59.141Z,82.71
2023-04-17T00:25:26.576Z,82.83
2023-04-17T00:27:53.625Z,83.32
2023-04-17T00:30:21.105Z,83.07
2023-04-17T00:32:48.534Z,83.74
2023-04-17T00:35:15.988Z,83.54
2023-04-17T00:37:43.273Z,83.61
2023-04-17T00:40:11.401Z,83.95
2023-04-17T00:42:38.358Z,83.82
2023-04-17T00:45:06.342Z,83.27
2023-04-17T00:47:33.557Z,83.12
2023-04-17T00:50:00.930Z,82.88
2023-04-17T00:52:32.915Z,83.46
2023-04-17T00:55:00.874Z,83.13
2023-04-17T00:57:28.238Z,83.21
2023-04-17T00:59:57.605Z,82.39
2023-04-17T01:02:26.271Z,82.86
2023-04-17T01:04:53.768Z,82.98
2023-04-17T01:07:21.214Z,82.83
2023-04-17T01:09:48.612Z,82.64
2023-04-17T01:12:17.389Z,82.32
2023-04-17T01:14:45.020Z,82.65
2023-04-17T01:17:14.395Z,81.80
2023-04-17T01:19:42.325Z,81.65
2023-04-17T01:22:09.342Z,81.43
2023-04-17T01:24:37.314Z,81.68
2023-04-17T01:27:05.164Z,81.66
2023-04-17T01:29:32.451Z,81.82
2023-04-17T01:31:59.549Z,82.08
2023-04-17T01:34:29.446Z,81.60
2023-04-17T01:36:56.552Z,81.60
2023-04-17T01:39:24.229Z,81.35
2023-04-17T01:41:51.852Z,81.23
2023-04-17T01:44:19.130Z,81.12
2023-04-17T01:46:46.248Z,81.48
2023-04-17T01:49:14.292Z,80.85
2023-04-17T01:51:41.322Z,81.26
2023-04-17T01:54:08.650Z,81.95
2023-04-17T01:56:35.998Z,82.05
2023-04-17T01:59:03.310Z,81.85
2023-04-17T02:01:31.281Z,82.20
2023-04-17T02:03:58.983Z,82.42
2023-04-17T02:06:27.520Z,82.05
2023-04-17T02:08:54.915Z,82.18
2023-04-17T02:11:22.161Z,82.24
2023-04-17T02:13:49.583Z,81.69
2023-04-17T02:16:16.788Z,81.38
2023-04-17T02:18:44.324Z,81.51
2023-04-17T02:21:18.644Z,81.05
2023-04-17T02:23:46.243Z,81.13
2023-04-17T02:26:13.358Z,81.11
2023-04-17T02:28:45.238Z,80.98
2023-04-17T02:31:12.841Z,80.45
2023-04-17T02:33:41.093Z,80.15
2023-04-17T02:36:08.386Z,80.81
2023-04-17T02:38:37.806Z,80.76
2023-04-17T02:41:05.499Z,80.08
2023-04-17T02:43:33.021Z,80.25
2023-04-17T02:46:01.567Z,79.76
2023-04-17T02:48:28.924Z,79.94
2023-04-17T02:50:56.146Z,79.63
2023-04-17T02:53:44.359Z,79.54
2023-04-17T02:56:44.915Z,79.48
2023-04-17T02:59:16.532Z,79.87
2023-04-17T03:02:19.079Z,80.02
2023-04-17T03:05:04.021Z,79.86
2023-04-17T03:07:36.789Z,79.42
2023-04-17T03:10:04.468Z,79.78
2023-04-17T03:16:21.921Z,80.39
2023-04-17T03:19:11.830Z,80.13
2023-04-17T03:22:03.263Z,80.09
2023-04-17T03:24:58.033Z,80.37
2023-04-17T03:27:43.720Z,80.34
2023-04-17T03:30:18.787Z,80.62
2023-04-17T03:33:02.548Z,80.66
2023-04-17T03:35:57.238Z,80.99
2023-04-17T03:38:31.451Z,80.67
2023-04-17T03:41:03.535Z,80.03
2023-04-17T03:43:30.526Z,80.13
2023-04-17T03:45:57.846Z,79.65
2023-04-17T03:48:24.916Z,79.29
2023-04-17T03:50:52.588Z,79.08
2023-04-17T03:53:20.031Z,79.32
2023-04-17T03:55:47.009Z,79.30
2023-04-17T03:58:14.379Z,78.85
2023-04-17T04:00:41.513Z,78.67
2023-04-17T04:03:09.436Z,78.58
2023-04-17T04:05:36.749Z,78.78
2023-04-17T04:08:05.339Z,78.80
2023-04-17T04:10:35.421Z,79.16
2023-04-17T04:13:03.061Z,79.09
2023-04-17T04:15:30.136Z,79.12
2023-04-17T04:18:00.778Z,78.95
2023-04-17T04:20:28.128Z,79.01
2023-04-17T04:22:57.885Z,78.82
2023-04-17T04:25:26.122Z,78.34
2023-04-17T04:27:53.821Z,78.32
2023-04-17T04:30:27.040Z,78.47
2023-04-17T04:32:58.471Z,78.06
2023-04-17T04:35:26.170Z,78.59
2023-04-17T04:37:55.093Z,78.33
2023-04-17T04:40:22.152Z,78.26
2023-04-17T04:42:51.392Z,79.14
2023-04-17T04:45:19.269Z,77.60
2023-04-17T04:47:48.648Z,77.60
2023-04-17T04:50:19.030Z,77.86
2023-04-17T04:52:51.768Z,77.73
2023-04-17T04:55:26.837Z,76.97
2023-04-17T04:57:54.478Z,76.81
2023-04-17T05:00:21.813Z,75.94
2023-04-17T05:02:49.233Z,76.53
2023-04-17T05:05:16.353Z,76.36
2023-04-17T05:07:43.754Z,75.96
2023-04-17T05:10:11.624Z,76.74
2023-04-17T05:12:48.518Z,76.52
2023-04-17T05:17:59.952Z,77.01
2023-04-17T05:20:27.196Z,77.02
2023-04-17T05:23:10.893Z,76.96
2023-04-17T05:25:38.876Z,76.94
2023-04-17T05:28:06.637Z,76.43
2023-04-17T05:30:34.146Z,76.34
2023-04-17T05:33:02.046Z,76.72
2023-04-17T05:35:30.586Z,76.83
2023-04-17T05:37:58.032Z,76.33
2023-04-17T05:40:25.462Z,75.74
2023-04-17T05:42:52.515Z,75.98
2023-04-17T05:45:20.009Z,75.34
2023-04-17T05:47:47.106Z,75.01
2023-04-17T05:50:14.656Z,73.82
2023-04-17T05:52:41.847Z,74.05
2023-04-17T05:55:11.448Z,73.22
2023-04-17T05:57:38.858Z,73.49
2023-04-17T06:00:11.608Z,73.44
2023-04-17T06:02:41.443Z,73.22
2023-04-17T06:05:09.805Z,73.43
2023-04-17T06:07:38.640Z,73.47
2023-04-17T06:10:08.883Z,73.46
2023-04-17T06:12:39.761Z,73.61
2023-04-17T06:17:50.243Z,73.44
2023-04-17T06:20:17.874Z,72.24
2023-04-17T06:22:46.953Z,72.42
2023-04-17T06:25:19.319Z,71.65
2023-04-17T06:27:50.981Z,72.65
2023-04-17T06:30:18.700Z,71.72
2023-04-17T06:32:45.727Z,69.18
2023-04-17T06:35:13.342Z,68.88
2023-04-17T06:37:40.557Z,68.34
2023-04-17T06:40:08.595Z,68.62
2023-04-17T06:42:35.871Z,69.47
2023-04-17T06:45:03.882Z,69.05
2023-04-17T06:47:31.078Z,69.87
2023-04-17T06:49:59.968Z,70.97
2023-04-17T06:52:27.075Z,70.21
2023-04-17T06:54:55.369Z,70.31
2023-04-17T06:57:22.631Z,70.68
2023-04-17T06:59:50.119Z,70.86
2023-04-17T07:02:18.281Z,71.73
2023-04-17T07:04:47.317Z,71.68
2023-04-17T07:07:16.991Z,70.97
2023-04-17T07:09:45.900Z,69.77
2023-04-17T07:12:12.895Z,70.23
2023-04-17T07:14:44.921Z,70.05
2023-04-17T07:17:12.023Z,69.08
2023-04-17T07:19:39.460Z,69.41
2023-04-17T07:22:06.607Z,69.29
2023-04-17T07:24:35.636Z,68.90
2023-04-17T07:27:04.133Z,69.44
2023-04-17T07:29:31.705Z,69.33
2023-04-17T07:31:59.135Z,69.22
2023-04-17T07:34:27.139Z,68.32
2023-04-17T07:36:55.472Z,68.83
2023-04-17T07:39:23.312Z,69.09
2023-04-17T07:41:50.667Z,68.19
2023-04-17T07:44:19.745Z,68.48
2023-04-17T07:46:55.880Z,68.94
2023-04-17T07:49:23.454Z,68.34
2023-04-17T07:51:50.895Z,68.40
2023-04-17T07:54:19.147Z,68.29
2023-04-17T07:56:46.753Z,67.36
2023-04-17T07:59:14.439Z,66.97
2023-04-17T08:01:41.694Z,67.63
2023-04-17T08:04:11.326Z,67.18
2023-04-17T08:06:39.182Z,67.89
2023-04-17T08:09:12.003Z,67.66
2023-04-17T08:11:49.772Z,67.63
2023-04-17T08:14:23.744Z,67.51
2023-04-17T08:16:50.808Z,66.59
2023-04-17T08:19:18.244Z,66.58
2023-04-17T08:21:47.776Z,67.07
2023-04-17T08:24:16.690Z,67.89
2023-04-17T08:26:45.788Z,66.92
2023-04-17T08:29:14.032Z,66.36
2023-04-17T08:31:42.477Z,66.16
2023-04-17T08:34:15.041Z,66.54
2023-04-17T08:36:43.355Z,65.91
2023-04-17T08:39:12.518Z,65.39
2023-04-17T08:41:52.128Z,64.59
2023-04-17T08:44:23.356Z,64.29
2023-04-17T08:46:51.241Z,64.24
2023-04-17T08:49:19.016Z,64.33
2023-04-17T08:51:47.264Z,63.85
2023-04-17T08:54:30.550Z,63.81
2023-04-17T08:56:57.861Z,64.49
2023-04-17T08:59:25.521Z,64.11
2023-04-17T09:02:05.892Z,64.19
2023-04-17T09:04:46.111Z,63.88
2023-04-17T09:07:23.784Z,63.32
2023-04-17T09:09:53.274Z,62.93
2023-04-17T09:12:21.458Z,61.70
2023-04-17T09:14:49.054Z,62.04
2023-04-17T09:17:17.687Z,62.12
2023-04-17T09:23:06.386Z,61.84
2023-04-17T09:25:35.812Z,62.17
2023-04-17T09:28:16.131Z,62.59
2023-04-17T09:30:53.002Z,62.54
2023-04-17T09:33:39.927Z,63.01
2023-04-17T09:36:22.300Z,63.20
2023-04-17T09:38:49.843Z,63.25
2023-04-17T09:41:28.304Z,63.51
2023-04-17T09:44:05.545Z,63.49
2023-04-17T09:46:46.192Z,63.82
2023-04-17T09:49:26.356Z,63.60
2023-04-17T09:51:55.220Z,62.55
2023-04-17T09:54:23.495Z,61.59
2023-04-17T09:56:56.163Z,61.42
2023-04-17T09:59:25.012Z,61.04
2023-04-17T10:02:24.655Z,61.23
2023-04-17T10:04:53.717Z,59.62
2023-04-17T10:07:21.807Z,59.70
2023-04-17T10:09:50.617Z,59.50
2023-04-17T10:12:21.767Z,59.26
2023-04-17T10:14:52.193Z,59.40
2023-04-17T10:17:32.610Z,59.60
2023-04-17T10:20:18.620Z,59.76
2023-04-17T10:22:57.236Z,59.17
2023-04-17T10:25:26.392Z,59.79
2023-04-17T10:27:55.214Z,58.50
2023-04-17T10:30:24.117Z,58.74
2023-04-17T10:33:16.563Z,58.53
2023-04-17T10:35:43.852Z,58.17
2023-04-17T10:38:12.184Z,58.25
2023-04-17T10:40:40.454Z,57.52
2023-04-17T10:43:20.528Z,57.93
2023-04-17T10:46:04.127Z,57.46
2023-04-17T10:48:38.438Z,57.40
2023-04-17T10:51:24.196Z,56.48
2023-04-17T10:54:05.355Z,56.76
2023-04-17T10:56:38.826Z,55.37
2023-04-17T10:59:06.282Z,54.55
2023-04-17T11:01:48.616Z,54.63
2023-04-17T11:04:31.037Z,53.55
2023-04-17T11:06:58.913Z,54.23
2023-04-17T11:09:28.989Z,53.58
2023-04-17T11:11:59.532Z,53.91
2023-04-17T11:14:27.084Z,54.65
2023-04-17T11:16:54.400Z,55.14
2023-04-17T11:19:24.763Z,52.69
2023-04-17T11:21:53.952Z,53.13
2023-04-17T11:24:27.416Z,52.73
2023-04-17T11:26:57.022Z,52.22
2023-04-17T11:29:27.359Z,52.96
2023-04-17T11:31:57.197Z,53.21
2023-04-17T11:34:27.392Z,53.07
2023-04-17T11:36:59.449Z,53.63
2023-04-17T11:39:29.833Z,53.82
2023-04-17T11:41:57.377Z,53.70
2023-04-17T11:44:25.977Z,53.81
2023-04-17T11:46:56.864Z,53.77
2023-04-17T11:49:38.286Z,52.83
2023-04-17T11:52:06.419Z,52.69
2023-04-17T11:54:38.381Z,52.99
2023-04-17T11:57:11.811Z,52.90
2023-04-17T11:59:44.967Z,52.45
2023-04-17T12:02:12.916Z,52.08
2023-04-17T12:04:44.803Z,51.71
2023-04-17T12:07:23.155Z,48.92
2023-04-17T12:10:02.608Z,48.70
2023-04-17T12:12:31.200Z,47.92
2023-04-17T12:14:59.332Z,47.41
2023-04-17T12:17:27.260Z,47.21
2023-04-17T12:19:55.005Z,46.36
2023-04-17T12:22:22.222Z,47.04
2023-04-17T12:24:49.659Z,47.57
2023-04-17T12:27:22.508Z,46.74
2023-04-17T12:29:49.954Z,46.17
2023-04-17T12:32:17.038Z,47.13
2023-04-17T12:34:44.561Z,46.96
2023-04-17T12:37:11.724Z,48.34
2023-04-17T12:39:39.140Z,48.46
2023-04-17T12:42:06.188Z,47.94
2023-04-17T12:44:33.858Z,47.68
2023-04-17T12:47:02.163Z,47.89
2023-04-17T12:49:29.679Z,47.49
2023-04-17T12:51:56.768Z,47.76
2023-04-17T12:54:24.220Z,47.66
2023-04-17T12:56:53.467Z,47.19
2023-04-17T12:59:20.951Z,48.07
2023-04-17T13:01:47.962Z,48.32
2023-04-17T13:04:15.926Z,48.73
2023-04-17T13:06:43.454Z,48.48
2023-04-17T13:09:11.045Z,48.75
2023-04-17T13:11:38.389Z,49.76
2023-04-17T13:14:07.907Z,49.64
2023-04-17T13:16:36.876Z,49.17
2023-04-17T13:19:04.562Z,49.08
2023-04-17T13:21:31.608Z,48.57
2023-04-17T13:23:58.967Z,49.18
2023-04-17T13:26:28.190Z,49.93
2023-04-17T13:28:55.811Z,49.61
2023-04-17T13:31:24.949Z,48.67
2023-04-17T13:34:00.698Z,48.61
2023-04-17T13:36:31.076Z,48.77
2023-04-17T13:38:58.617Z,48.33
2023-04-17T13:41:25.849Z,48.63
2023-04-17T13:43:55.285Z,48.50
2023-04-17T13:46:22.486Z,47.57
2023-04-17T13:48:49.887Z,46.25
2023-04-17T13:51:25.682Z,46.53
2023-04-17T13:53:54.169Z,45.28
2023-04-17T13:56:23.603Z,44.71
2023-04-17T13:58:52.546Z,43.91
2023-04-17T14:01:20.020Z,44.94
2023-04-17T14:03:47.897Z,43.85
2023-04-17T14:06:17.834Z,44.30
2023-04-17T14:08:47.326Z,44.27
2023-04-17T14:11:17.341Z,44.27
2023-04-17T14:13:44.878Z,44.60
2023-04-17T14:16:12.573Z,44.11
2023-04-17T14:18:40.014Z,45.07
2023-04-17T14:21:07.256Z,44.19
2023-04-17T14:23:34.656Z,44.25
2023-04-17T14:26:01.810Z,42.99
2023-04-17T14:28:29.278Z,42.56
2023-04-17T14:30:56.418Z,42.53
2023-04-17T14:33:25.129Z,42.58
2023-04-17T14:38:38.398Z,42.82
2023-04-17T14:41:05.999Z,42.89
2023-04-17T14:43:36.069Z,41.76
2023-04-17T14:46:03.734Z,42.30
2023-04-17T14:51:16.981Z,42.99
2023-04-17T14:53:45.788Z,42.76
2023-04-17T14:56:13.205Z,42.90
2023-04-17T14:58:40.797Z,41.90
2023-04-17T15:01:10.616Z,42.47
2023-04-17T15:03:38.599Z,42.44
2023-04-17T15:06:06.381Z,42.61
2023-04-17T15:08:34.015Z,42.45
2023-04-17T15:11:01.015Z,42.45
2023-04-17T15:13:29.738Z,42.66
2023-04-17T15:15:56.709Z,42.89
2023-04-17T15:18:25.653Z,42.53
2023-04-17T15:20:52.695Z,41.62
2023-04-17T15:23:22.964Z,41.10
2023-04-17T15:25:50.064Z,41.39
2023-04-17T15:28:21.262Z,40.91
2023-04-17T15:33:29.751Z,40.36
2023-04-17T15:35:58.779Z,40.17
2023-04-17T15:38:26.775Z,39.70
2023-04-17T15:40:54.528Z,39.90
2023-04-17T15:43:22.391Z,39.73
2023-04-17T15:45:49.606Z,39.56
2023-04-17T15:48:17.264Z,40.31
2023-04-17T15:50:44.833Z,40.89
2023-04-17T15:53:13.280Z,40.63
2023-04-17T15:55:41.391Z,40.99
2023-04-17T15:58:09.377Z,40.67
2023-04-17T16:00:36.534Z,41.40
2023-04-17T16:03:04.223Z,41.75
2023-04-17T16:05:31.374Z,41.82
2023-04-17T16:07:58.847Z,41.58
2023-04-17T16:10:26.185Z,41.39
2023-04-17T16:13:09.315Z,41.66
2023-04-17T16:15:37.248Z,41.52
2023-04-17T16:18:05.817Z,42.26
2023-04-17T16:20:33.366Z,42.43
2023-04-17T16:23:00.927Z,42.48
2023-04-17T16:25:29.757Z,42.68
2023-04-17T16:27:56.949Z,43.49
2023-04-17T16:30:24.518Z,43.14
2023-04-17T16:32:54.653Z,43.25
2023-04-17T16:35:23.067Z,43.66
2023-04-17T16:37:50.149Z,43.96
2023-04-17T16:40:18.212Z,44.15
2023-04-17T16:42:45.288Z,44.49
2023-04-17T16:45:12.758Z,44.68
2023-04-17T16:47:39.904Z,44.72
2023-04-17T16:50:09.825Z,44.94
2023-04-17T16:52:39.912Z,45.11
2023-04-17T16:55:08.127Z,44.86
2023-04-17T16:57:42.997Z,44.88
2023-04-17T17:00:11.760Z,45.10
2023-04-17T17:02:38.914Z,45.62
2023-04-17T17:05:09.915Z,45.19
2023-04-17T17:07:36.904Z,45.45
2023-04-17T17:10:04.635Z,46.12
2023-04-17T17:12:31.799Z,45.98
2023-04-17T17:14:59.862Z,46.44
2023-04-17T17:17:28.269Z,47.28
2023-04-17T17:19:55.847Z,47.02
2023-04-17T17:22:23.083Z,47.21
2023-04-17T17:24:51.498Z,47.31
2023-04-17T17:27:20.635Z,47.73
2023-04-17T17:29:48.396Z,47.74
2023-04-17T17:32:18.968Z,47.43
2023-04-17T17:34:47.169Z,47.37
2023-04-17T17:37:14.775Z,47.33
2023-04-17T17:39:42.896Z,47.75
2023-04-17T17:42:09.992Z,47.57
2023-04-17T17:44:38.676Z,47.58
2023-04-17T17:47:07.653Z,47.51
2023-04-17T17:49:35.730Z,47.50
2023-04-17T17:52:02.980Z,47.55
2023-04-17T17:54:34.571Z,47.78
2023-04-17T17:57:01.607Z,47.51
2023-04-17T17:59:29.405Z,48.08
2023-04-17T18:01:57.526Z,47.70
2023-04-17T18:04:25.185Z,48.34
2023-04-17T18:06:52.467Z,49.47
2023-04-17T18:09:20.016Z,49.55
2023-04-17T18:11:47.319Z,49.53
2023-04-17T18:14:14.915Z,49.41
2023-04-17T18:16:43.107Z,48.88
2023-04-17T18:19:10.938Z,48.89
2023-04-17T18:21:38.174Z,48.79
2023-04-17T18:24:06.281Z,49.27
2023-04-17T18:26:34.246Z,48.99
2023-04-17T18:29:02.028Z,49.09
2023-04-17T18:31:29.376Z,49.48
2023-04-17T18:34:02.182Z,49.68
2023-04-17T18:36:29.985Z,50.19
2023-04-17T18:38:57.749Z,50.21
2023-04-17T18:41:26.687Z,50.64
2023-04-17T18:43:54.404Z,50.64
2023-04-17T18:46:23.098Z,50.86
2023-04-17T18:48:50.620Z,51.39
2023-04-17T18:51:17.925Z,51.30
2023-04-17T18:53:45.510Z,51.24
2023-04-17T18:56:13.892Z,51.67
2023-04-17T18:58:41.397Z,51.59
2023-04-17T19:01:10.563Z,51.35
2023-04-17T19:03:39.945Z,51.66
2023-04-17T19:06:07.147Z,51.70
2023-04-17T19:08:35.610Z,51.75
2023-04-17T19:11:03.338Z,51.63
2023-04-17T19:13:31.248Z,52.11
2023-04-17T19:15:58.667Z,51.81
2023-04-17T19:18:34.210Z,52.34
2023-04-17T19:21:02.264Z,52.47
2023-04-17T19:23:31.295Z,52.75
2023-04-17T19:25:58.859Z,52.70
2023-04-17T19:28:28.485Z,52.38
2023-04-17T19:30:57.843Z,52.60
2023-04-17T19:33:26.873Z,52.56
2023-04-17T19:35:54.196Z,52.66
2023-04-17T19:38:21.673Z,52.74
2023-04-17T19:41:19.229Z,53.01
2023-04-17T19:43:49.953Z,52.92
2023-04-17T19:46:18.531Z,52.98
2023-04-17T19:48:47.449Z,52.97
2023-04-17T19:51:15.418Z,53.03
2023-04-17T19:53:46.170Z,53.04
2023-04-17T19:56:13.516Z,53.73
2023-04-17T19:58:41.765Z,54.23
2023-04-17T20:01:09.036Z,54.02
2023-04-17T20:03:38.603Z,54.38
2023-04-17T20:06:06.080Z,54.44
2023-04-17T20:08:33.579Z,54.49
2023-04-17T20:11:00.884Z,54.89
2023-04-17T20:13:28.407Z,54.72
2023-04-17T20:15:55.825Z,54.72
2023-04-17T20:18:26.278Z,54.74
2023-04-17T20:20:53.509Z,54.97
2023-04-17T20:23:21.460Z,54.71
2023-04-17T20:25:50.760Z,54.68
2023-04-17T20:28:18.765Z,54.55
2023-04-17T20:30:46.037Z,54.22
2023-04-17T20:33:13.928Z,54.28
2023-04-17T20:35:42.787Z,53.79
2023-04-17T20:38:10.329Z,53.82
2023-04-17T20:40:41.519Z,53.74
2023-04-17T20:43:11.354Z,54.23
2023-04-17T20:45:40.408Z,54.04
2023-04-17T20:48:07.787Z,53.39
2023-04-17T20:50:34.873Z,53.88
2023-04-17T20:53:02.213Z,53.69
2023-04-17T20:55:29.180Z,53.78
2023-04-17T20:57:56.529Z,53.43
2023-04-17T21:00:23.593Z,53.20
2023-04-17T21:02:51.109Z,53.31
2023-04-17T21:05:19.411Z,53.75
2023-04-17T21:07:47.200Z,53.36
2023-04-17T21:10:15.121Z,53.80
2023-04-17T21:12:42.454Z,53.70
2023-04-17T21:15:09.830Z,53.99
2023-04-17T21:17:37.201Z,53.23
2023-04-17T21:20:08.053Z,53.52
2023-04-17T21:22:37.150Z,53.26
2023-04-17T21:25:04.563Z,53.49
2023-04-17T21:27:31.847Z,53.52
2023-04-17T21:29:58.860Z,53.95
2023-04-17T21:32:26.312Z,54.22
2023-04-17T21:34:53.301Z,54.38
2023-04-17T21:37:22.604Z,54.31
2023-04-17T21:39:49.446Z,54.51
2023-04-17T21:42:17.270Z,54.40
2023-04-17T21:44:44.320Z,54.40
2023-04-17T21:47:11.593Z,54.25
2023-04-17T21:49:38.639Z,54.06
2023-04-17T21:52:06.060Z,54.19
2023-04-17T21:54:33.750Z,54.55
2023-04-17T21:57:02.230Z,54.28
2023-04-17T21:59:29.358Z,54.49
2023-04-17T22:01:56.815Z,54.42
2023-04-17T22:04:23.860Z,54.13
2023-04-17T22:06:52.169Z,53.97
2023-04-17T22:09:21.296Z,53.98
2023-04-17T22:11:48.747Z,53.75
2023-04-17T22:14:16.927Z,54.01
2023-04-17T22:16:44.668Z,54.44
2023-04-17T22:19:11.750Z,54.46
2023-04-17T22:21:39.149Z,54.24
2023-04-17T22:24:06.549Z,54.70
2023-04-17T22:26:34.014Z,54.56
2023-04-17T22:29:01.058Z,54.70
2023-04-17T22:31:28.611Z,54.35
2023-04-17T22:33:55.834Z,54.55
2023-04-17T22:36:23.341Z,54.22
2023-04-17T22:38:50.346Z,54.37
2023-04-17T22:41:17.680Z,54.45
2023-04-17T22:43:48.454Z,54.58
2023-04-17T22:46:16.494Z,54.09
2023-04-17T22:48:46.288Z,54.18
2023-04-17T22:51:15.276Z,53.91
2023-04-17T22:53:43.179Z,53.78
2023-04-17T22:56:12.912Z,53.72
2023-04-17T22:58:39.954Z,54.32
2023-04-17T23:01:07.335Z,54.36
2023-04-17T23:03:35.111Z,54.26
2023-04-17T23:06:03.222Z,54.24
2023-04-17T23:08:31.103Z,54.40
2023-04-17T23:11:00.152Z,54.80
2023-04-17T23:13:28.246Z,55.27
2023-04-17T23:15:56.118Z,55.17
2023-04-17T23:18:23.696Z,55.57
2023-04-17T23:20:51.216Z,55.54
2023-04-17T23:23:20.676Z,55.71
2023-04-17T23:25:48.436Z,56.04
2023-04-17T23:28:15.603Z,56.01
2023-04-17T23:30:42.929Z,56.70
2023-04-17T23:33:10.223Z,56.59
2023-04-17T23:35:37.545Z,56.69
2023-04-17T23:38:04.552Z,56.71
2023-04-17T23:40:32.869Z,57.13
2023-04-17T23:43:00.183Z,57.31
2023-04-17T23:45:27.508Z,57.26
2023-04-17T23:47:54.591Z,57.26
2023-04-17T23:50:23.243Z,57.60
2023-04-17T23:52:50.471Z,58.17
2023-04-17T23:55:17.813Z,58.21
2023-04-17T23:57:44.796Z,58.33
